Time;durP1;ratioP1;P1;durP2;ratioP2;P2;SDS_P1;SDS_P2;PMS_P1;PMS_P2;Temp;Humidity;BMP_temperature;BMP_pressure;BME280_temperature;BME280_humidity;BME280_pressure;Samples;Min_cycle;Max_cycle;Signal;HPM_P1;HPM_P2
2023/12/29 00:01:01;;;;;;;9.10;2.90;;;;;;;5.79;100.00;98888.19;109171;1257;66717;-62
2023/12/29 00:03:49;;;;;;;10.70;3.20;;;;;;;5.72;100.00;98888.35;109202;1256;71742;-61
2023/12/29 00:06:40;;;;;;;9.40;2.80;;;;;;;5.67;100.00;98883.50;109221;1257;59031;-63
2023/12/29 00:09:44;;;;;;;9.40;2.90;;;;;;;5.61;100.00;98872.78;109252;1257;60313;-61
2023/12/29 00:12:32;;;;;;;7.30;2.70;;;;;;;5.58;100.00;98877.81;109237;1256;74036;-61
2023/12/29 00:15:19;;;;;;;8.50;2.50;;;;;;;5.55;100.00;98878.92;109172;1257;67955;-61
2023/12/29 00:18:07;;;;;;;9.30;2.50;;;;;;;5.52;100.00;98881.25;109189;1257;70208;-61
2023/12/29 00:20:55;;;;;;;9.60;2.80;;;;;;;5.49;100.00;98874.07;109235;1257;57301;-61
2023/12/29 00:23:54;;;;;;;6.60;2.20;;;;;;;5.46;100.00;98869.34;109210;1257;58779;-61
2023/12/29 00:26:42;;;;;;;9.60;2.80;;;;;;;5.42;100.00;98872.80;109218;1257;71907;-61
2023/12/29 00:29:33;;;;;;;8.70;2.70;;;;;;;5.41;100.00;98865.70;109206;1257;67619;-61
2023/12/29 00:32:22;;;;;;;8.20;2.70;;;;;;;5.38;100.00;98861.85;109213;1257;73399;-62
2023/12/29 00:35:11;;;;;;;7.30;2.30;;;;;;;5.37;100.00;98858.45;109209;1256;59404;-61
2023/12/29 00:37:58;;;;;;;8.70;2.60;;;;;;;5.37;100.00;98852.48;109227;1257;61007;-61
2023/12/29 00:40:47;;;;;;;7.60;2.30;;;;;;;5.36;100.00;98855.91;108479;1256;1002095;-61
2023/12/29 00:43:35;;;;;;;8.50;2.70;;;;;;;5.35;100.00;98847.39;109221;1257;67781;-61
2023/12/29 00:46:23;;;;;;;8.70;2.40;;;;;;;5.36;100.00;98851.00;109108;1257;73422;-61
2023/12/29 00:49:11;;;;;;;7.90;2.60;;;;;;;5.35;100.00;98855.13;109027;1257;58017;-60
2023/12/29 00:52:01;;;;;;;7.10;2.70;;;;;;;5.34;100.00;98850.93;108480;1257;1002874;-62
2023/12/29 00:54:48;;;;;;;7.60;2.60;;;;;;;5.34;100.00;98849.55;109208;1256;72997;-60
2023/12/29 00:57:36;;;;;;;8.80;2.70;;;;;;;5.35;100.00;98841.94;109218;1256;66479;-61
2023/12/29 01:00:25;;;;;;;6.90;2.40;;;;;;;5.35;100.00;98843.46;109209;1257;72443;-62
2023/12/29 01:03:15;;;;;;;7.10;2.30;;;;;;;5.34;100.00;98840.37;109194;1256;58204;-61
2023/12/29 01:06:03;;;;;;;7.90;2.80;;;;;;;5.34;100.00;98833.73;109235;1256;60604;-62
2023/12/29 01:08:50;;;;;;;8.60;2.70;;;;;;;5.34;100.00;98835.49;109145;1257;74231;-61
2023/12/29 01:11:38;;;;;;;8.30;2.80;;;;;;;5.33;100.00;98832.38;109189;1257;67553;-61
2023/12/29 01:14:27;;;;;;;9.20;2.60;;;;;;;5.33;100.00;98825.38;109146;1257;71140;-62
2023/12/29 01:17:15;;;;;;;8.00;2.40;;;;;;;5.33;100.00;98821.83;109124;1258;59297;-62
2023/12/29 01:20:04;;;;;;;9.10;2.50;;;;;;;5.32;100.00;98816.25;109257;1256;60081;-63
2023/12/29 01:22:52;;;;;;;8.20;2.50;;;;;;;5.31;100.00;98816.52;109214;1257;72597;-61
2023/12/29 01:25:40;;;;;;;9.50;3.00;;;;;;;5.30;100.00;98806.04;109190;1257;68994;-61
2023/12/29 01:28:27;;;;;;;10.50;2.90;;;;;;;5.29;100.00;98803.09;109175;1257;71266;-60
2023/12/29 01:31:15;;;;;;;7.70;2.70;;;;;;;5.28;100.00;98799.28;109178;1257;57277;-63
2023/12/29 01:34:03;;;;;;;7.30;2.70;;;;;;;5.27;100.00;98796.19;109239;1257;59070;-61
2023/12/29 01:36:51;;;;;;;8.30;2.80;;;;;;;5.24;100.00;98786.30;109050;1257;71784;-62
2023/12/29 01:39:40;;;;;;;9.00;3.10;;;;;;;5.23;100.00;98779.34;109224;1257;69177;-63
2023/12/29 01:42:28;;;;;;;6.80;2.50;;;;;;;5.21;100.00;98768.73;109074;1257;73361;-62
2023/12/29 01:45:25;;;;;;;9.30;2.60;;;;;;;5.20;100.00;98763.91;109127;1257;59198;-61
2023/12/29 01:48:13;;;;;;;7.60;2.60;;;;;;;5.19;100.00;98750.78;109112;1257;61320;-61
2023/12/29 01:51:02;;;;;;;8.40;2.60;;;;;;;5.17;100.00;98749.33;109215;1257;73045;-61
2023/12/29 01:53:52;;;;;;;6.90;2.40;;;;;;;5.16;100.00;98746.94;109112;1257;67721;-60
2023/12/29 01:56:41;;;;;;;7.30;2.40;;;;;;;5.14;100.00;98748.34;109153;1257;71039;-61
2023/12/29 01:59:31;;;;;;;8.70;2.60;;;;;;;5.12;100.00;98749.56;109043;1257;58071;-59
2023/12/29 02:02:19;;;;;;;7.30;2.50;;;;;;;5.08;100.00;98744.54;109160;1257;60044;-61
2023/12/29 02:05:07;;;;;;;7.60;2.50;;;;;;;5.04;100.00;98739.95;109213;1257;73767;-63
2023/12/29 02:07:58;;;;;;;8.60;2.60;;;;;;;5.00;100.00;98737.12;109072;1257;67738;-61
2023/12/29 02:10:47;;;;;;;9.50;2.90;;;;;;;4.94;100.00;98727.47;109080;1257;72582;-61
2023/12/29 02:13:35;;;;;;;6.80;2.40;;;;;;;4.92;100.00;98721.33;109048;1257;58301;-61
2023/12/29 02:16:45;;;;;;;7.60;2.60;;;;;;;4.88;100.00;98718.46;109232;1257;59990;-61
2023/12/29 02:19:38;;;;;;;9.40;2.50;;;;;;;4.86;100.00;98720.59;109139;1257;73443;-63
2023/12/29 02:22:28;;;;;;;7.30;2.40;;;;;;;4.81;100.00;98720.03;109222;1257;67159;-61
2023/12/29 02:25:16;;;;;;;6.90;2.30;;;;;;;4.78;100.00;98710.13;109242;1257;71622;-61
2023/12/29 02:28:26;;;;;;;8.80;2.80;;;;;;;4.75;100.00;98716.25;109174;1258;58842;-62
2023/12/29 02:31:20;;;;;;;7.70;2.80;;;;;;;4.70;100.00;98724.02;109066;1257;59322;-61
2023/12/29 02:34:10;;;;;;;6.70;2.40;;;;;;;4.67;100.00;98718.15;109060;1257;71916;-60
2023/12/29 02:36:59;;;;;;;7.70;2.30;;;;;;;4.64;100.00;98712.18;109212;1257;67248;-60
2023/12/29 02:39:48;;;;;;;6.50;2.30;;;;;;;4.63;100.00;98708.27;109200;1257;72345;-61
2023/12/29 02:42:35;;;;;;;8.90;2.80;;;;;;;4.60;100.00;98683.86;109126;1257;60987;-60
2023/12/29 02:45:23;;;;;;;8.50;2.80;;;;;;;4.58;100.00;98679.09;109152;1257;60342;-60
2023/12/29 02:48:11;;;;;;;7.60;2.40;;;;;;;4.58;100.00;98683.11;109171;1257;70599;-62
2023/12/29 02:50:59;;;;;;;8.00;2.30;;;;;;;4.57;100.00;98676.84;109203;1257;65794;-61
2023/12/29 02:53:48;;;;;;;6.50;2.10;;;;;;;4.56;100.00;98679.05;109218;1257;72575;-61
2023/12/29 02:56:36;;;;;;;6.90;2.50;;;;;;;4.56;100.00;98680.64;109056;1257;59342;-61
2023/12/29 02:59:24;;;;;;;7.20;2.30;;;;;;;4.55;100.00;98679.96;109215;1257;61528;-61
2023/12/29 03:02:11;;;;;;;8.60;2.70;;;;;;;4.54;100.00;98680.04;109169;1257;72966;-61
2023/12/29 03:05:00;;;;;;;7.20;2.60;;;;;;;4.53;100.00;98684.17;109159;1257;67867;-60
2023/12/29 03:07:48;;;;;;;7.10;2.40;;;;;;;4.53;100.00;98684.39;109059;1257;73728;-60
2023/12/29 03:10:35;;;;;;;8.30;2.70;;;;;;;4.55;100.00;98685.11;109210;1257;58367;-60
2023/12/29 03:13:23;;;;;;;7.70;2.80;;;;;;;4.59;100.00;98688.52;109223;1257;61097;-61
2023/12/29 03:16:12;;;;;;;6.60;2.20;;;;;;;4.62;100.00;98679.87;109212;1257;73124;-61
2023/12/29 03:19:00;;;;;;;7.00;2.10;;;;;;;4.65;100.00;98669.07;109080;1257;68816;-61
2023/12/29 03:21:48;;;;;;;7.70;2.50;;;;;;;4.68;100.00;98666.20;109120;1257;72558;-61
2023/12/29 03:24:36;;;;;;;11.40;3.10;;;;;;;4.75;100.00;98670.77;109142;1257;58751;-61
2023/12/29 03:27:24;;;;;;;8.70;2.70;;;;;;;4.81;100.00;98663.66;109105;1257;58997;-60
2023/12/29 03:30:11;;;;;;;6.40;2.50;;;;;;;4.87;100.00;98654.05;109075;1257;71513;-62
2023/12/29 03:32:59;;;;;;;6.60;2.50;;;;;;;4.91;100.00;98653.77;109197;1257;69836;-61
2023/12/29 03:35:50;;;;;;;7.50;2.50;;;;;;;4.95;100.00;98651.83;109179;1257;72483;-63
2023/12/29 03:38:38;;;;;;;8.80;3.00;;;;;;;5.01;100.00;98649.34;108965;1259;59299;-62
2023/12/29 03:41:26;;;;;;;8.10;2.40;;;;;;;5.04;100.00;98647.46;108915;1260;61357;-62
2023/12/29 03:44:13;;;;;;;7.90;2.70;;;;;;;5.08;100.00;98638.88;108984;1259;72742;-62
2023/12/29 03:47:02;;;;;;;7.50;3.00;;;;;;;5.06;100.00;98633.80;108965;1259;68071;-61
2023/12/29 03:49:49;;;;;;;6.80;2.70;;;;;;;5.02;100.00;98629.53;108975;1259;72700;-62
2023/12/29 03:52:37;;;;;;;8.10;2.40;;;;;;;4.98;100.00;98624.19;108979;1259;58845;-63
2023/12/29 03:55:26;;;;;;;9.30;2.80;;;;;;;4.92;100.00;98616.76;108912;1260;61363;-62
2023/12/29 03:58:14;;;;;;;9.50;2.40;;;;;;;4.90;100.00;98614.30;108915;1259;72920;-61
2023/12/29 04:01:02;;;;;;;8.00;2.20;;;;;;;4.85;100.00;98612.01;108851;1259;67701;-61
2023/12/29 04:03:50;;;;;;;6.00;2.30;;;;;;;4.81;100.00;98607.23;108993;1259;72380;-61
2023/12/29 04:06:38;;;;;;;9.70;2.80;;;;;;;4.81;100.00;98607.95;108971;1259;60299;-61
2023/12/29 04:09:26;;;;;;;8.40;2.40;;;;;;;4.80;100.00;98607.69;108861;1257;59084;-61
2023/12/29 04:12:14;;;;;;;6.60;2.20;;;;;;;4.78;100.00;98606.58;109183;1257;74094;-63
2023/12/29 04:15:04;;;;;;;6.80;2.30;;;;;;;4.77;100.00;98607.17;109065;1257;67760;-62
2023/12/29 04:17:52;;;;;;;6.50;2.20;;;;;;;4.75;100.00;98608.21;109103;1257;73358;-61
2023/12/29 04:20:39;;;;;;;9.80;2.40;;;;;;;4.74;100.00;98600.55;109105;1257;59553;-60
2023/12/29 04:23:27;;;;;;;6.60;2.50;;;;;;;4.73;100.00;98596.56;109213;1257;58697;-64
2023/12/29 04:26:15;;;;;;;7.40;2.20;;;;;;;4.76;100.00;98585.95;109149;1257;73109;-61
2023/12/29 04:29:04;;;;;;;7.90;1.90;;;;;;;4.80;100.00;98581.33;109030;1257;66639;-62
2023/12/29 04:31:53;;;;;;;8.80;2.60;;;;;;;4.86;100.00;98577.30;109184;1257;71295;-62
2023/12/29 04:34:41;;;;;;;8.20;2.50;;;;;;;4.90;100.00;98565.05;109150;1257;59207;-61
2023/12/29 04:37:29;;;;;;;8.00;2.20;;;;;;;4.92;100.00;98555.41;109091;1257;60663;-62
2023/12/29 04:40:17;;;;;;;7.00;2.60;;;;;;;4.91;100.00;98547.92;109186;1257;71999;-62
2023/12/29 04:43:05;;;;;;;8.90;2.60;;;;;;;4.91;100.00;98544.04;109141;1257;67531;-60
2023/12/29 04:45:52;;;;;;;8.30;2.10;;;;;;;4.91;100.00;98549.55;109020;1257;72466;-61
2023/12/29 04:48:41;;;;;;;8.30;2.60;;;;;;;4.91;100.00;98554.27;108956;1257;58163;-61
2023/12/29 04:51:29;;;;;;;8.30;2.30;;;;;;;4.90;100.00;98556.11;109194;1256;61225;-60
2023/12/29 04:54:16;;;;;;;9.50;2.80;;;;;;;4.89;100.00;98560.58;109138;1257;73074;-62
2023/12/29 04:57:04;;;;;;;11.10;2.60;;;;;;;4.89;100.00;98550.54;109132;1257;67972;-61
2023/12/29 04:59:52;;;;;;;8.50;2.40;;;;;;;4.92;100.00;98538.52;109146;1257;73682;-61
2023/12/29 05:02:40;;;;;;;7.40;2.30;;;;;;;4.94;100.00;98535.41;109161;1257;60553;-61
2023/12/29 05:05:28;;;;;;;9.50;2.50;;;;;;;4.97;100.00;98535.89;108403;1257;1002533;-61
2023/12/29 05:08:16;;;;;;;6.70;2.50;;;;;;;5.00;100.00;98541.94;109168;1257;72962;-61
2023/12/29 05:11:03;;;;;;;8.20;2.40;;;;;;;5.02;100.00;98542.48;109076;1257;66508;-63
2023/12/29 05:13:51;;;;;;;8.70;2.50;;;;;;;5.04;100.00;98534.21;109092;1257;73377;-62
2023/12/29 05:16:38;;;;;;;8.90;2.60;;;;;;;5.06;100.00;98541.81;109159;1257;57356;-61
2023/12/29 05:19:26;;;;;;;8.70;2.50;;;;;;;5.09;100.00;98540.57;109209;1257;60700;-61
2023/12/29 05:22:17;;;;;;;9.00;2.30;;;;;;;5.10;100.00;98537.11;109071;1256;74001;-63
2023/12/29 05:25:06;;;;;;;8.40;2.50;;;;;;;5.12;100.00;98532.25;109164;1257;66296;-63
2023/12/29 05:27:54;;;;;;;6.90;2.50;;;;;;;5.13;100.00;98524.63;108906;1260;71639;-62
2023/12/29 05:30:41;;;;;;;9.60;2.90;;;;;;;5.10;100.00;98518.30;108939;1260;59263;-61
2023/12/29 05:33:31;;;;;;;9.00;2.60;;;;;;;5.15;100.00;98521.42;108949;1260;58670;-60
2023/12/29 05:36:19;;;;;;;9.70;2.50;;;;;;;5.17;100.00;98522.88;108788;1261;71483;-61
2023/12/29 05:39:07;;;;;;;7.20;2.60;;;;;;;5.18;100.00;98522.95;108948;1260;66317;-60
2023/12/29 05:41:55;;;;;;;6.90;2.20;;;;;;;5.21;100.00;98527.27;108896;1260;72749;-60
2023/12/29 05:44:43;;;;;;;8.40;2.60;;;;;;;5.24;100.00;98523.41;108790;1260;58140;-62
2023/12/29 05:47:30;;;;;;;9.40;3.10;;;;;;;5.28;100.00;98520.24;108802;1260;58894;-63
2023/12/29 05:50:18;;;;;;;7.50;2.40;;;;;;;5.31;100.00;98524.18;108948;1260;72992;-61
2023/12/29 05:53:06;;;;;;;8.90;2.30;;;;;;;5.35;100.00;98518.05;108904;1260;68224;-61
2023/12/29 05:55:54;;;;;;;9.80;2.90;;;;;;;5.38;100.00;98515.58;108924;1260;71445;-62
2023/12/29 05:58:42;;;;;;;8.80;2.40;;;;;;;5.39;100.00;98512.48;108820;1260;57702;-62
2023/12/29 06:01:30;;;;;;;7.70;2.30;;;;;;;5.40;100.00;98509.04;108912;1261;60313;-62
2023/12/29 06:04:18;;;;;;;7.30;2.30;;;;;;;5.41;100.00;98506.53;108900;1260;72985;-61
2023/12/29 06:07:06;;;;;;;7.40;2.30;;;;;;;5.40;100.00;98503.61;109130;1257;67627;-61
2023/12/29 06:09:53;;;;;;;6.80;2.20;;;;;;;5.40;100.00;98501.32;109028;1257;73178;-62
2023/12/29 06:12:41;;;;;;;7.50;2.30;;;;;;;5.37;100.00;98491.19;108365;1257;1002787;-61
2023/12/29 06:15:29;;;;;;;9.40;2.40;;;;;;;5.33;100.00;98490.13;109146;1257;60418;-62
2023/12/29 06:18:17;;;;;;;8.00;2.40;;;;;;;5.26;100.00;98496.08;109029;1257;74042;-62
2023/12/29 06:21:04;;;;;;;8.00;2.10;;;;;;;5.24;100.00;98490.46;109147;1257;68740;-63
2023/12/29 06:23:52;;;;;;;6.80;2.00;;;;;;;5.22;100.00;98498.38;109119;1257;73903;-63
2023/12/29 06:26:42;;;;;;;8.60;2.40;;;;;;;5.21;100.00;98491.98;109113;1257;59287;-61
2023/12/29 06:29:31;;;;;;;8.10;2.30;;;;;;;5.22;100.00;98483.22;109094;1257;61285;-63
2023/12/29 06:32:20;;;;;;;9.30;2.50;;;;;;;5.25;100.00;98480.36;109134;1257;72823;-63
2023/12/29 06:35:10;;;;;;;7.20;2.30;;;;;;;5.28;100.00;98485.39;109110;1257;66393;-62
2023/12/29 06:37:57;;;;;;;7.30;2.40;;;;;;;5.30;100.00;98478.20;109098;1257;71507;-61
2023/12/29 06:40:46;;;;;;;9.50;2.40;;;;;;;5.31;100.00;98480.95;109092;1257;60630;-62
2023/12/29 06:43:34;;;;;;;7.70;2.50;;;;;;;5.32;100.00;98471.23;109061;1257;61310;-61
2023/12/29 06:46:22;;;;;;;8.70;2.70;;;;;;;5.33;100.00;98472.85;109070;1257;72074;-61
2023/12/29 06:49:11;;;;;;;9.10;2.40;;;;;;;5.35;100.00;98473.98;109147;1257;69234;-62
2023/12/29 06:51:58;;;;;;;7.10;2.10;;;;;;;5.37;100.00;98474.50;109086;1257;72901;-62
2023/12/29 06:54:46;;;;;;;8.40;2.70;;;;;;;5.39;100.00;98474.48;109126;1261;59488;-62
2023/12/29 06:57:34;;;;;;;8.60;2.60;;;;;;;5.41;100.00;98472.01;109099;1257;60404;-60
2023/12/29 07:00:21;;;;;;;7.10;2.10;;;;;;;5.42;100.00;98476.92;109139;1257;72723;-61
2023/12/29 07:03:09;;;;;;;7.30;2.60;;;;;;;5.43;100.00;98472.94;109224;1256;66649;-62
2023/12/29 07:06:00;;;;;;;7.90;2.50;;;;;;;5.47;100.00;98471.74;109091;1257;72381;-61
2023/12/29 07:08:48;;;;;;;8.00;3.00;;;;;;;5.50;100.00;98474.84;109016;1258;59340;-62
2023/12/29 07:11:36;;;;;;;10.30;2.80;;;;;;;5.52;100.00;98474.16;109182;1257;59042;-62
2023/12/29 07:14:24;;;;;;;9.30;2.70;;;;;;;5.55;100.00;98471.11;109166;1256;71786;-60
2023/12/29 07:17:11;;;;;;;10.20;3.00;;;;;;;5.58;100.00;98475.95;109156;1256;66408;-61
2023/12/29 07:20:00;;;;;;;10.30;2.90;;;;;;;5.60;100.00;98465.44;109158;1257;73763;-61
2023/12/29 07:22:47;;;;;;;7.30;2.30;;;;;;;5.60;100.00;98475.41;109143;1257;60368;-61
2023/12/29 07:25:35;;;;;;;8.80;2.50;;;;;;;5.59;100.00;98463.16;109172;1257;61094;-62
2023/12/29 07:28:23;;;;;;;7.40;2.40;;;;;;;5.59;100.00;98468.11;109202;1257;73132;-62
2023/12/29 07:31:11;;;;;;;9.10;2.70;;;;;;;5.59;100.00;98464.41;109199;1257;68690;-61
2023/12/29 07:33:59;;;;;;;7.20;2.20;;;;;;;5.59;100.00;98456.52;108985;1257;72730;-62
2023/12/29 07:36:47;;;;;;;8.60;2.70;;;;;;;5.56;100.00;98454.11;109173;1257;59338;-61
2023/12/29 07:39:38;;;;;;;6.90;2.50;;;;;;;5.55;100.00;98460.55;109157;1257;59996;-61
2023/12/29 07:42:26;;;;;;;10.10;2.70;;;;;;;5.54;100.00;98454.25;109043;1256;73887;-62
2023/12/29 07:45:14;;;;;;;10.40;2.50;;;;;;;5.54;100.00;98460.77;109123;1257;66442;-62
2023/12/29 07:48:03;;;;;;;8.40;2.50;;;;;;;5.57;100.00;98455.98;109180;1257;72454;-67
2023/12/29 07:50:53;;;;;;;8.60;2.50;;;;;;;5.57;100.00;98454.34;109050;1257;59587;-62
2023/12/29 07:53:40;;;;;;;6.80;2.30;;;;;;;5.57;100.00;98450.66;109111;1257;59584;-61
2023/12/29 07:56:28;;;;;;;7.50;2.40;;;;;;;5.58;100.00;98453.61;109028;1257;72646;-64
2023/12/29 07:59:16;;;;;;;7.90;2.20;;;;;;;5.59;100.00;98454.20;109131;1257;66691;-63
2023/12/29 08:02:04;;;;;;;8.60;2.60;;;;;;;5.62;100.00;98447.95;109132;1257;72299;-63
2023/12/29 08:04:54;;;;;;;8.70;2.30;;;;;;;5.65;100.00;98443.39;109016;1257;58454;-62
2023/12/29 08:07:41;;;;;;;8.00;3.00;;;;;;;5.67;100.00;98441.65;109048;1257;60482;-62
2023/12/29 08:10:31;;;;;;;8.10;2.70;;;;;;;5.69;100.00;98431.03;108913;1257;72619;-62
2023/12/29 08:13:19;;;;;;;6.70;2.30;;;;;;;5.70;100.00;98428.34;109132;1257;69101;-63
2023/12/29 08:16:08;;;;;;;7.50;2.60;;;;;;;5.74;100.00;98422.02;109019;1257;72634;-63
2023/12/29 08:18:56;;;;;;;7.90;2.20;;;;;;;5.77;100.00;98420.14;108998;1258;59422;-64
2023/12/29 08:21:44;;;;;;;6.50;2.20;;;;;;;5.79;100.00;98426.86;109128;1259;61310;-64
2023/12/29 08:24:32;;;;;;;10.10;2.60;;;;;;;5.81;100.00;98432.50;109117;1257;73048;-61
2023/12/29 08:27:25;;;;;;;9.20;2.30;;;;;;;5.84;100.00;98426.68;109110;1257;68880;-61
2023/12/29 08:30:14;;;;;;;7.90;2.60;;;;;;;5.86;100.00;98415.89;108998;1259;72835;-62
2023/12/29 08:33:02;;;;;;;7.10;2.30;;;;;;;5.88;100.00;98415.34;109004;1259;59592;-61
2023/12/29 08:35:50;;;;;;;8.80;2.80;;;;;;;5.90;100.00;98410.63;109189;1257;60096;-61
2023/12/29 08:38:38;;;;;;;8.80;2.50;;;;;;;5.92;100.00;98421.03;109070;1257;72929;-64
2023/12/29 08:41:26;;;;;;;5.80;2.00;;;;;;;5.94;100.00;98417.88;109150;1257;66962;-62
2023/12/29 08:44:14;;;;;;;8.40;2.60;;;;;;;5.94;100.00;98417.83;109154;1257;72826;-66
2023/12/29 08:47:03;;;;;;;7.80;2.40;;;;;;;5.97;100.00;98414.83;109096;1257;60328;-62
2023/12/29 08:49:51;;;;;;;9.20;2.20;;;;;;;6.02;100.00;98408.10;109175;1257;60042;-62
2023/12/29 08:52:39;;;;;;;9.20;2.40;;;;;;;6.06;100.00;98413.33;109194;1257;70624;-63
2023/12/29 08:55:27;;;;;;;7.80;2.30;;;;;;;6.10;100.00;98409.46;109157;1257;67590;-64
2023/12/29 08:58:15;;;;;;;9.10;2.40;;;;;;;6.15;100.00;98410.64;109170;1257;72393;-64
2023/12/29 09:01:02;;;;;;;8.90;2.40;;;;;;;6.21;100.00;98409.79;109152;1257;59673;-63
2023/12/29 09:03:50;;;;;;;8.80;2.30;;;;;;;6.24;100.00;98410.39;109071;1257;59022;-62
2023/12/29 09:06:38;;;;;;;8.50;2.30;;;;;;;6.30;100.00;98415.54;109130;1257;72852;-62
2023/12/29 09:09:26;;;;;;;6.40;2.00;;;;;;;6.34;100.00;98421.25;109119;1257;67707;-63
2023/12/29 09:12:14;;;;;;;8.90;2.50;;;;;;;6.31;100.00;98424.97;109094;1257;71373;-62
2023/12/29 09:15:02;;;;;;;8.20;2.20;;;;;;;6.30;100.00;98428.02;109156;1257;59751;-62
2023/12/29 09:17:50;;;;;;;6.20;2.20;;;;;;;6.27;100.00;98430.66;109086;1257;60287;-62
2023/12/29 09:20:37;;;;;;;6.90;2.30;;;;;;;6.22;100.00;98441.28;109070;1257;73175;-63
2023/12/29 09:23:25;;;;;;;7.10;2.10;;;;;;;6.17;100.00;98444.66;109093;1257;68800;-62
2023/12/29 09:26:13;;;;;;;8.80;2.50;;;;;;;6.07;100.00;98445.31;109129;1257;71562;-62
2023/12/29 09:29:01;;;;;;;7.40;2.70;;;;;;;5.98;100.00;98448.16;109010;1257;59259;-65
2023/12/29 09:31:48;;;;;;;5.50;2.00;;;;;;;5.98;100.00;98453.86;109038;1257;58881;-63
2023/12/29 09:34:40;;;;;;;8.40;2.10;;;;;;;5.92;100.00;98456.27;109164;1257;72031;-62
2023/12/29 09:37:27;;;;;;;8.00;2.10;;;;;;;5.87;100.00;98465.48;109184;1257;68013;-62
2023/12/29 09:40:16;;;;;;;6.80;2.30;;;;;;;5.82;100.00;98471.54;109070;1257;72647;-62
2023/12/29 09:43:04;;;;;;;6.20;1.80;;;;;;;5.75;100.00;98470.88;109152;1257;59245;-62
2023/12/29 09:45:54;;;;;;;5.80;1.80;;;;;;;5.73;100.00;98486.85;108947;1257;60129;-63
2023/12/29 09:48:45;;;;;;;6.10;2.10;;;;;;;5.68;100.00;98493.43;109160;1257;74005;-64
2023/12/29 09:51:40;;;;;;;5.80;2.00;;;;;;;5.63;100.00;98502.26;109022;1257;67748;-63
2023/12/29 09:54:30;;;;;;;6.40;1.80;;;;;;;5.57;100.00;98505.23;108979;1258;73729;-62
2023/12/29 09:57:19;;;;;;;6.30;2.20;;;;;;;5.53;100.00;98514.02;108962;1257;59181;-62
2023/12/29 10:00:11;;;;;;;6.10;2.00;;;;;;;5.48;100.00;98508.95;109173;1257;60146;-65
2023/12/29 10:03:00;;;;;;;5.30;1.60;;;;;;;5.43;100.00;98507.11;108979;1257;72802;-63
2023/12/29 10:05:54;;;;;;;5.90;1.70;;;;;;;5.41;100.00;98492.64;109058;1257;66751;-63
2023/12/29 10:08:46;;;;;;;7.40;2.10;;;;;;;5.38;100.00;98471.27;109036;1257;72839;-62
2023/12/29 10:11:37;;;;;;;5.80;1.80;;;;;;;5.38;100.00;98438.54;109050;1257;58187;-62
2023/12/29 10:14:41;;;;;;;6.20;1.50;;;;;;;5.40;100.00;98409.70;109131;1257;59036;-64
2023/12/29 10:18:09;;;;;;;6.80;2.00;;;;;;;5.43;100.00;98402.38;109173;1257;73086;-62
2023/12/29 10:21:20;;;;;;;7.60;2.10;;;;;;;5.52;100.00;98404.81;109149;1257;66639;-62
2023/12/29 10:24:20;;;;;;;6.50;1.80;;;;;;;5.59;100.00;98402.15;109106;1257;72390;-62
2023/12/29 10:27:08;;;;;;;7.40;2.40;;;;;;;5.61;100.00;98412.30;109041;1257;60444;-61
2023/12/29 10:29:55;;;;;;;9.20;2.90;;;;;;;5.64;100.00;98420.17;109121;1257;61220;-65
2023/12/29 10:32:50;;;;;;;7.20;2.70;;;;;;;5.71;100.00;98431.38;109070;1257;72698;-62
2023/12/29 10:35:39;;;;;;;7.60;2.70;;;;;;;5.79;100.00;98418.27;109126;1257;68914;-63
2023/12/29 10:38:27;;;;;;;8.40;3.20;;;;;;;5.88;100.00;98417.02;109169;1257;72643;-64
2023/12/29 10:41:18;;;;;;;9.10;3.40;;;;;;;5.93;100.00;98408.23;109134;1257;60149;-61
2023/12/29 10:44:07;;;;;;;8.60;3.20;;;;;;;6.02;100.00;98404.08;109182;1257;60273;-62
2023/12/29 10:46:55;;;;;;;8.30;3.00;;;;;;;6.09;100.00;98395.89;109041;1257;72785;-61
2023/12/29 10:49:43;;;;;;;7.70;2.70;;;;;;;6.37;100.00;98394.70;109034;1257;69067;-62
2023/12/29 10:52:33;;;;;;;7.20;2.50;;;;;;;7.07;100.00;98389.80;109058;1257;72394;-64
2023/12/29 10:55:23;;;;;;;7.20;2.30;;;;;;;7.58;100.00;98396.15;109026;1258;60961;-63
2023/12/29 10:58:12;;;;;;;7.40;2.40;;;;;;;7.99;100.00;98389.46;109008;1257;58736;-63
2023/12/29 11:01:00;;;;;;;7.40;2.50;;;;;;;8.53;98.90;98390.27;109046;1258;72779;-64
2023/12/29 11:04:01;;;;;;;8.50;2.70;;;;;;;9.97;92.11;98388.70;108239;1263;1002975;-62
2023/12/29 11:06:51;;;;;;;6.70;2.20;;;;;;;10.16;86.62;98390.57;109066;1257;71528;-62
2023/12/29 11:09:38;;;;;;;7.80;2.40;;;;;;;10.80;85.05;98382.39;108990;1257;57317;-63
2023/12/29 11:12:27;;;;;;;8.80;2.40;;;;;;;10.80;82.11;98385.69;109128;1257;61043;-62
2023/12/29 11:15:16;;;;;;;6.90;2.20;;;;;;;10.17;83.81;98391.67;109078;1257;72761;-61
2023/12/29 11:18:05;;;;;;;7.60;2.00;;;;;;;9.60;86.08;98387.87;109057;1258;66596;-63
2023/12/29 11:20:53;;;;;;;8.50;2.10;;;;;;;9.42;86.51;98386.86;109064;1257;72619;-63
2023/12/29 11:23:40;;;;;;;9.80;1.90;;;;;;;9.17;86.63;98392.58;109066;1257;59596;-63
2023/12/29 11:26:29;;;;;;;8.60;2.60;;;;;;;9.17;87.27;98386.98;109149;1257;59928;-63
2023/12/29 11:29:17;;;;;;;7.50;2.00;;;;;;;9.74;85.94;98385.39;109107;1257;72891;-63
2023/12/29 11:32:14;;;;;;;7.70;2.10;;;;;;;10.88;80.36;98375.81;109106;1257;66493;-61
2023/12/29 11:35:27;;;;;;;7.70;2.10;;;;;;;11.85;74.76;98385.66;109180;1257;72486;-63
2023/12/29 11:38:30;;;;;;;8.20;2.10;;;;;;;12.30;71.62;98388.09;108950;1257;57819;-63
2023/12/29 11:41:46;;;;;;;8.10;2.20;;;;;;;12.21;70.29;98384.98;109077;1257;59003;-64
2023/12/29 11:44:34;;;;;;;10.00;2.50;;;;;;;12.34;71.14;98384.91;108935;1257;74252;-64
2023/12/29 11:47:38;;;;;;;11.30;2.50;;;;;;;11.48;71.45;98389.48;109164;1257;68607;-62
2023/12/29 11:50:41;;;;;;;8.20;2.30;;;;;;;10.46;74.71;98401.80;109195;1257;73351;-64
2023/12/29 11:53:32;;;;;;;8.10;2.20;;;;;;;9.73;78.38;98405.89;109145;1257;57994;-64
2023/12/29 11:56:20;;;;;;;9.10;2.30;;;;;;;9.18;80.74;98407.05;109057;1259;59070;-62
2023/12/29 11:59:16;;;;;;;8.80;2.00;;;;;;;8.92;83.44;98405.71;109173;1257;72674;-63
2023/12/29 12:02:06;;;;;;;9.50;2.20;;;;;;;8.59;85.15;98404.98;109064;1257;66430;-62
2023/12/29 12:04:53;;;;;;;7.90;2.20;;;;;;;8.33;86.42;98401.52;109029;1257;72654;-62
2023/12/29 12:07:57;;;;;;;8.80;2.30;;;;;;;8.06;88.45;98409.33;108899;1257;58023;-63
2023/12/29 12:10:45;;;;;;;10.20;1.90;;;;;;;7.82;89.57;98407.58;109044;1261;59341;-62
2023/12/29 12:13:44;;;;;;;10.10;2.30;;;;;;;7.60;91.15;98407.60;108998;1257;73017;-62
2023/12/29 12:16:47;;;;;;;11.50;2.20;;;;;;;7.44;92.27;98413.48;108911;1257;68295;-62
2023/12/29 12:19:35;;;;;;;10.90;2.40;;;;;;;7.34;92.86;98415.61;109221;1257;71139;-62
2023/12/29 12:22:25;;;;;;;7.00;2.20;;;;;;;7.28;93.08;98415.96;109197;1257;57668;-61
2023/12/29 12:25:14;;;;;;;8.30;2.10;;;;;;;7.26;93.65;98411.20;109083;1257;58719;-63
2023/12/29 12:28:07;;;;;;;8.90;2.40;;;;;;;7.24;93.97;98411.08;109095;1257;73844;-62
2023/12/29 12:31:06;;;;;;;12.50;2.00;;;;;;;7.21;93.99;98419.42;108920;1257;66466;-65
2023/12/29 12:34:00;;;;;;;8.50;2.40;;;;;;;7.16;93.95;98423.70;109093;1257;73399;-62
2023/12/29 12:36:54;;;;;;;10.80;2.10;;;;;;;7.13;93.93;98427.37;109059;1257;57375;-61
2023/12/29 12:39:43;;;;;;;8.80;2.10;;;;;;;7.08;94.24;98426.59;108940;1257;60359;-63
2023/12/29 12:42:32;;;;;;;11.30;2.20;;;;;;;7.05;94.21;98425.61;109057;1257;71580;-62
2023/12/29 12:45:24;;;;;;;8.40;1.90;;;;;;;7.05;94.46;98418.54;109081;1257;66908;-64
2023/12/29 12:48:32;;;;;;;11.00;2.30;;;;;;;7.08;94.52;98420.94;108946;1257;70722;-65
2023/12/29 12:51:21;;;;;;;13.10;2.90;;;;;;;7.11;94.73;98428.23;109027;1257;57346;-62
2023/12/29 12:54:10;;;;;;;11.60;2.40;;;;;;;7.11;94.52;98429.09;109113;1257;60324;-62
2023/12/29 12:56:58;;;;;;;11.20;3.00;;;;;;;7.09;95.02;98429.23;109051;1258;72968;-62
2023/12/29 12:59:47;;;;;;;8.30;2.10;;;;;;;7.12;95.10;98427.04;109049;1260;68672;-63
2023/12/29 13:02:35;;;;;;;10.80;2.20;;;;;;;7.17;95.04;98429.33;109190;1257;72536;-66
2023/12/29 13:05:23;;;;;;;10.00;2.10;;;;;;;7.18;94.42;98431.30;109012;1257;57916;-66
2023/12/29 13:08:12;;;;;;;10.80;3.50;;;;;;;7.15;94.45;98426.98;109122;1257;60179;-63